sensor_id;sensor_type;location;lat;lon;timestamp;pressure;altitude;pressure_sealevel;temperature;humidity
6198;BME280;3132;42.622;23.328;2023-05-10T00:01:05;93053.34;;;8.92;100.00
6198;BME280;3132;42.622;23.328;2023-05-10T00:03:31;93054.63;;;8.89;100.00
6198;BME280;3132;42.622;23.328;2023-05-10T00:05:56;93050.47;;;8.83;100.00
6198;BME280;3132;42.622;23.328;2023-05-10T00:08:22;93047.06;;;8.83;100.00
6198;BME280;3132;42.622;23.328;2023-05-10T00:10:47;93042.13;;;8.86;100.00
6198;BME280;3132;42.622;23.328;2023-05-10T00:13:13;93048.38;;;8.80;100.00
6198;BME280;3132;42.622;23.328;2023-05-10T00:15:38;93040.59;;;8.85;100.00
6198;BME280;3132;42.622;23.328;2023-05-10T00:18:04;93043.94;;;8.86;100.00
6198;BME280;3132;42.622;23.328;2023-05-10T00:20:29;93041.34;;;8.86;100.00
6198;BME280;3132;42.622;23.328;2023-05-10T00:22:55;93025.47;;;8.82;100.00
6198;BME280;3132;42.622;23.328;2023-05-10T00:25:20;93013.25;;;8.78;100.00
6198;BME280;3132;42.622;23.328;2023-05-10T00:27:47;93031.47;;;8.88;100.00
6198;BME280;3132;42.622;23.328;2023-05-10T00:30:13;93030.38;;;8.69;100.00
6198;BME280;3132;42.622;23.328;2023-05-10T00:32:38;93027.75;;;8.69;100.00
6198;BME280;3132;42.622;23.328;2023-05-10T00:35:04;93041.88;;;8.78;100.00
6198;BME280;3132;42.622;23.328;2023-05-10T00:37:29;93029.63;;;8.78;100.00
6198;BME280;3132;42.622;23.328;2023-05-10T00:39:55;93036.66;;;8.83;100.00
6198;BME280;3132;42.622;23.328;2023-05-10T00:42:21;93023.38;;;8.74;100.00
6198;BME280;3132;42.622;23.328;2023-05-10T00:44:47;93029.09;;;8.81;100.00
6198;BME280;3132;42.622;23.328;2023-05-10T00:47:13;93029.13;;;8.86;100.00
6198;BME280;3132;42.622;23.328;2023-05-10T00:49:38;93023.91;;;8.86;100.00
6198;BME280;3132;42.622;23.328;2023-05-10T00:52:04;93027.03;;;8.83;100.00
6198;BME280;3132;42.622;23.328;2023-05-10T00:54:30;93018.97;;;8.85;100.00
6198;BME280;3132;42.622;23.328;2023-05-10T00:56:55;93018.13;;;8.64;100.00
6198;BME280;3132;42.622;23.328;2023-05-10T00:59:22;93005.41;;;8.73;100.00
6198;BME280;3132;42.622;23.328;2023-05-10T01:01:47;93017.38;;;8.74;100.00
6198;BME280;3132;42.622;23.328;2023-05-10T01:04:14;93001.75;;;8.74;100.00
6198;BME280;3132;42.622;23.328;2023-05-10T01:06:40;92991.03;;;8.50;100.00
6198;BME280;3132;42.622;23.328;2023-05-10T01:09:06;93015.31;;;8.76;100.00
6198;BME280;3132;42.622;23.328;2023-05-10T01:11:35;93010.06;;;8.66;100.00
6198;BME280;3132;42.622;23.328;2023-05-10T01:14:02;93010.59;;;8.68;100.00
6198;BME280;3132;42.622;23.328;2023-05-10T01:16:29;93008.50;;;8.60;100.00
6198;BME280;3132;42.622;23.328;2023-05-10T01:18:55;92992.59;;;8.51;100.00
6198;BME280;3132;42.622;23.328;2023-05-10T01:21:43;93010.06;;;8.66;100.00
6198;BME280;3132;42.622;23.328;2023-05-10T01:27:04;93000.72;;;8.70;100.00
6198;BME280;3132;42.622;23.328;2023-05-10T01:35:11;92988.22;;;8.67;100.00
6198;BME280;3132;42.622;23.328;2023-05-10T01:37:42;92993.41;;;8.72;100.00
6198;BME280;3132;42.622;23.328;2023-05-10T01:42:51;92989.22;;;8.56;100.00
6198;BME280;3132;42.622;23.328;2023-05-10T01:48:10;92972.53;;;8.42;100.00
6198;BME280;3132;42.622;23.328;2023-05-10T01:50:39;92961.09;;;8.48;100.00
6198;BME280;3132;42.622;23.328;2023-05-10T01:53:08;92974.13;;;8.53;100.00
6198;BME280;3132;42.622;23.328;2023-05-10T01:55:38;92975.16;;;8.47;100.00
6198;BME280;3132;42.622;23.328;2023-05-10T01:58:14;92980.59;;;8.45;100.00
6198;BME280;3132;42.622;23.328;2023-05-10T02:00:43;92977.22;;;8.45;100.00
6198;BME280;3132;42.622;23.328;2023-05-10T02:03:10;92979.03;;;8.39;100.00
6198;BME280;3132;42.622;23.328;2023-05-10T02:05:37;92980.84;;;8.34;100.00
6198;BME280;3132;42.622;23.328;2023-05-10T02:08:07;92966.53;;;8.31;100.00
6198;BME280;3132;42.622;23.328;2023-05-10T02:10:36;92963.94;;;8.36;100.00
6198;BME280;3132;42.622;23.328;2023-05-10T02:13:03;92964.69;;;8.32;100.00
6198;BME280;3132;42.622;23.328;2023-05-10T02:15:31;92960.56;;;8.41;100.00
6198;BME280;3132;42.622;23.328;2023-05-10T02:17:58;92965.50;;;8.37;100.00
6198;BME280;3132;42.622;23.328;2023-05-10T02:20:26;92958.44;;;8.23;100.00
6198;BME280;3132;42.622;23.328;2023-05-10T02:22:52;92972.47;;;8.27;100.00
6198;BME280;3132;42.622;23.328;2023-05-10T02:25:20;92963.63;;;8.23;100.00
6198;BME280;3132;42.622;23.328;2023-05-10T02:27:48;92960.66;;;8.04;100.00
6198;BME280;3132;42.622;23.328;2023-05-10T02:30:14;92966.38;;;8.01;100.00
6198;BME280;3132;42.622;23.328;2023-05-10T02:32:41;92957.72;;;7.85;100.00
6198;BME280;3132;42.622;23.328;2023-05-10T02:35:08;92958.28;;;7.92;100.00
6198;BME280;3132;42.622;23.328;2023-05-10T02:37:36;92959.25;;;7.81;100.00
6198;BME280;3132;42.622;23.328;2023-05-10T02:40:02;92967.38;;;7.90;100.00
6198;BME280;3132;42.622;23.328;2023-05-10T02:42:31;92966.53;;;7.84;100.00
6198;BME280;3132;42.622;23.328;2023-05-10T02:45:00;92960.25;;;7.70;100.00
6198;BME280;3132;42.622;23.328;2023-05-10T02:47:27;92957.41;;;7.72;100.00
6198;BME280;3132;42.622;23.328;2023-05-10T02:49:53;92962.88;;;7.70;100.00
6198;BME280;3132;42.622;23.328;2023-05-10T02:52:23;92936.22;;;7.48;100.00
6198;BME280;3132;42.622;23.328;2023-05-10T02:54:52;92952.69;;;7.69;100.00
6198;BME280;3132;42.622;23.328;2023-05-10T02:57:28;92944.69;;;7.70;100.00
6198;BME280;3132;42.622;23.328;2023-05-10T02:59:54;92944.53;;;7.45;100.00
6198;BME280;3132;42.622;23.328;2023-05-10T03:02:20;92942.44;;;7.42;100.00
6198;BME280;3132;42.622;23.328;2023-05-10T03:04:46;92942.22;;;7.54;100.00
6198;BME280;3132;42.622;23.328;2023-05-10T03:07:11;92947.63;;;7.42;100.00
6198;BME280;3132;42.622;23.328;2023-05-10T03:09:37;92945.63;;;7.54;100.00
6198;BME280;3132;42.622;23.328;2023-05-10T03:12:18;92937.34;;;7.62;100.00
6198;BME280;3132;42.622;23.328;2023-05-10T03:17:35;92943.34;;;7.68;100.00
6198;BME280;3132;42.622;23.328;2023-05-10T03:20:13;92951.34;;;7.61;100.00
6198;BME280;3132;42.622;23.328;2023-05-10T03:22:47;92951.34;;;7.61;100.00
6198;BME280;3132;42.622;23.328;2023-05-10T03:25:16;92959.75;;;7.78;100.00
6198;BME280;3132;42.622;23.328;2023-05-10T03:27:44;92948.34;;;7.79;100.00
6198;BME280;3132;42.622;23.328;2023-05-10T03:30:11;92952.50;;;7.80;100.00
6198;BME280;3132;42.622;23.328;2023-05-10T03:32:37;92958.47;;;7.76;100.00
6198;BME280;3132;42.622;23.328;2023-05-10T03:35:09;92964.16;;;7.73;100.00
6198;BME280;3132;42.622;23.328;2023-05-10T03:37:35;92946.72;;;7.68;100.00
6198;BME280;3132;42.622;23.328;2023-05-10T03:40:02;92961.81;;;7.71;100.00
6198;BME280;3132;42.622;23.328;2023-05-10T03:42:27;92969.06;;;7.69;100.00
6198;BME280;3132;42.622;23.328;2023-05-10T03:44:53;92978.47;;;7.75;100.00
6198;BME280;3132;42.622;23.328;2023-05-10T03:47:18;92984.66;;;7.69;100.00
6198;BME280;3132;42.622;23.328;2023-05-10T03:49:43;92977.84;;;7.58;100.00
6198;BME280;3132;42.622;23.328;2023-05-10T03:52:09;92972.06;;;7.46;100.00
6198;BME280;3132;42.622;23.328;2023-05-10T03:54:34;92977.75;;;7.43;100.00
6198;BME280;3132;42.622;23.328;2023-05-10T03:57:00;92991.75;;;7.37;100.00
6198;BME280;3132;42.622;23.328;2023-05-10T03:59:26;92999.00;;;7.35;100.00
6198;BME280;3132;42.622;23.328;2023-05-10T04:01:51;92993.81;;;7.35;100.00
6198;BME280;3132;42.622;23.328;2023-05-10T04:04:17;92999.50;;;7.32;100.00
6198;BME280;3132;42.622;23.328;2023-05-10T04:06:44;92998.34;;;7.18;100.00
6198;BME280;3132;42.622;23.328;2023-05-10T04:09:10;92997.03;;;7.16;100.00
6198;BME280;3132;42.622;23.328;2023-05-10T04:11:36;93007.38;;;7.11;100.00
6198;BME280;3132;42.622;23.328;2023-05-10T04:14:01;93002.50;;;7.19;100.00
6198;BME280;3132;42.622;23.328;2023-05-10T04:16:27;93009.28;;;7.20;100.00
6198;BME280;3132;42.622;23.328;2023-05-10T04:18:52;93006.75;;;7.30;100.00
6198;BME280;3132;42.622;23.328;2023-05-10T04:21:18;93006.72;;;7.25;100.00
6198;BME280;3132;42.622;23.328;2023-05-10T04:23:43;93004.69;;;7.32;100.00
6198;BME280;3132;42.622;23.328;2023-05-10T04:26:09;92999.53;;;7.37;100.00
6198;BME280;3132;42.622;23.328;2023-05-10T04:28:34;92999.63;;;7.52;100.00
6198;BME280;3132;42.622;23.328;2023-05-10T04:31:04;93003.97;;;7.42;100.00
6198;BME280;3132;42.622;23.328;2023-05-10T04:33:30;93002.69;;;7.44;100.00
6198;BME280;3132;42.622;23.328;2023-05-10T04:35:55;93007.38;;;7.47;100.00
6198;BME280;3132;42.622;23.328;2023-05-10T04:38:21;92997.94;;;7.31;100.00
6198;BME280;3132;42.622;23.328;2023-05-10T04:40:46;93009.63;;;7.34;100.00
6198;BME280;3132;42.622;23.328;2023-05-10T04:43:12;93007.81;;;7.34;100.00
6198;BME280;3132;42.622;23.328;2023-05-10T04:45:37;92984.81;;;7.11;100.00
6198;BME280;3132;42.622;23.328;2023-05-10T04:48:03;93002.25;;;7.21;100.00
6198;BME280;3132;42.622;23.328;2023-05-10T04:50:28;93007.31;;;7.37;100.00
6198;BME280;3132;42.622;23.328;2023-05-10T04:52:53;93006.28;;;7.38;100.00
6198;BME280;3132;42.622;23.328;2023-05-10T04:55:19;92995.75;;;7.55;100.00
6198;BME280;3132;42.622;23.328;2023-05-10T04:57:44;92995.06;;;7.69;100.00
6198;BME280;3132;42.622;23.328;2023-05-10T05:00:10;92987.56;;;7.73;100.00
6198;BME280;3132;42.622;23.328;2023-05-10T05:02:36;92995.75;;;7.96;100.00
6198;BME280;3132;42.622;23.328;2023-05-10T05:05:01;92997.56;;;8.01;100.00
6198;BME280;3132;42.622;23.328;2023-05-10T05:07:27;93000.66;;;7.93;100.00
6198;BME280;3132;42.622;23.328;2023-05-10T05:09:52;93001.91;;;7.85;100.00
6198;BME280;3132;42.622;23.328;2023-05-10T05:12:18;93006.41;;;8.00;100.00
6198;BME280;3132;42.622;23.328;2023-05-10T05:14:43;93011.34;;;7.96;100.00
6198;BME280;3132;42.622;23.328;2023-05-10T05:17:08;93013.69;;;7.98;100.00
6198;BME280;3132;42.622;23.328;2023-05-10T05:19:34;93016.06;;;8.04;100.00
6198;BME280;3132;42.622;23.328;2023-05-10T05:21:59;93011.38;;;8.06;100.00
6198;BME280;3132;42.622;23.328;2023-05-10T05:24:25;93026.97;;;8.01;100.00
6198;BME280;3132;42.622;23.328;2023-05-10T05:26:50;93023.91;;;8.14;100.00
6198;BME280;3132;42.622;23.328;2023-05-10T05:29:15;93029.06;;;8.09;100.00
6198;BME280;3132;42.622;23.328;2023-05-10T05:31:41;93023.59;;;8.11;100.00
6198;BME280;3132;42.622;23.328;2023-05-10T05:34:06;93037.19;;;8.18;100.00
6198;BME280;3132;42.622;23.328;2023-05-10T05:36:32;93023.78;;;7.94;100.00
6198;BME280;3132;42.622;23.328;2023-05-10T05:38:57;93037.34;;;7.96;100.00
6198;BME280;3132;42.622;23.328;2023-05-10T05:41:23;93042.38;;;8.18;100.00
6198;BME280;3132;42.622;23.328;2023-05-10T05:43:49;93037.91;;;8.08;99.95
6198;BME280;3132;42.622;23.328;2023-05-10T05:46:15;93048.06;;;8.10;100.00
6198;BME280;3132;42.622;23.328;2023-05-10T05:48:40;93026.97;;;8.06;100.00
6198;BME280;3132;42.622;23.328;2023-05-10T05:51:06;93053.28;;;8.15;100.00
6198;BME280;3132;42.622;23.328;2023-05-10T05:53:31;93056.84;;;7.99;100.00
6198;BME280;3132;42.622;23.328;2023-05-10T05:55:58;93052.94;;;7.96;100.00
6198;BME280;3132;42.622;23.328;2023-05-10T05:58:24;93066.34;;;8.25;100.00
6198;BME280;3132;42.622;23.328;2023-05-10T06:00:51;93075.41;;;8.17;100.00
6198;BME280;3132;42.622;23.328;2023-05-10T06:03:17;93070.19;;;8.17;100.00
6198;BME280;3132;42.622;23.328;2023-05-10T06:05:43;93063.00;;;8.25;100.00
6198;BME280;3132;42.622;23.328;2023-05-10T06:08:08;93054.16;;;8.26;100.00
6198;BME280;3132;42.622;23.328;2023-05-10T06:10:34;93062.53;;;8.38;100.00
6198;BME280;3132;42.622;23.328;2023-05-10T06:12:59;93058.34;;;8.32;100.00
6198;BME280;3132;42.622;23.328;2023-05-10T06:15:25;93050.81;;;8.35;100.00
6198;BME280;3132;42.622;23.328;2023-05-10T06:17:51;93069.75;;;8.26;100.00
6198;BME280;3132;42.622;23.328;2023-05-10T06:20:16;93065.69;;;8.45;100.00
6198;BME280;3132;42.622;23.328;2023-05-10T06:22:42;93062.84;;;8.56;100.00
6198;BME280;3132;42.622;23.328;2023-05-10T06:25:08;93065.63;;;8.35;100.00
6198;BME280;3132;42.622;23.328;2023-05-10T06:27:33;93066.97;;;8.42;100.00
6198;BME280;3132;42.622;23.328;2023-05-10T06:29:59;93061.59;;;8.59;100.00
6198;BME280;3132;42.622;23.328;2023-05-10T06:32:25;93079.72;;;8.44;100.00
6198;BME280;3132;42.622;23.328;2023-05-10T06:34:50;93078.22;;;8.58;100.00
6198;BME280;3132;42.622;23.328;2023-05-10T06:37:16;93080.16;;;8.92;100.00
6198;BME280;3132;42.622;23.328;2023-05-10T06:39:41;93085.34;;;8.87;100.00
6198;BME280;3132;42.622;23.328;2023-05-10T06:42:07;93085.09;;;8.84;99.92
6198;BME280;3132;42.622;23.328;2023-05-10T06:44:32;93085.59;;;8.81;99.88
6198;BME280;3132;42.622;23.328;2023-05-10T06:46:58;93076.19;;;8.75;98.59
6198;BME280;3132;42.622;23.328;2023-05-10T06:49:23;93072.25;;;8.57;99.43
6198;BME280;3132;42.622;23.328;2023-05-10T06:51:49;93077.16;;;8.54;99.31
6198;BME280;3132;42.622;23.328;2023-05-10T06:54:14;93075.44;;;8.74;99.75
6198;BME280;3132;42.622;23.328;2023-05-10T06:56:40;93078.25;;;8.68;100.00
6198;BME280;3132;42.622;23.328;2023-05-10T06:59:06;93069.94;;;8.71;99.97
6198;BME280;3132;42.622;23.328;2023-05-10T07:01:31;93074.09;;;8.72;100.00
6198;BME280;3132;42.622;23.328;2023-05-10T07:03:57;93078.00;;;8.69;99.31
6198;BME280;3132;42.622;23.328;2023-05-10T07:06:22;93082.91;;;8.56;100.00
6198;BME280;3132;42.622;23.328;2023-05-10T07:08:47;93089.72;;;8.72;99.02
6198;BME280;3132;42.622;23.328;2023-05-10T07:11:13;93089.72;;;8.72;98.16
6198;BME280;3132;42.622;23.328;2023-05-10T07:13:38;93088.66;;;8.63;96.65
6198;BME280;3132;42.622;23.328;2023-05-10T07:16:06;93094.59;;;8.53;100.00
6198;BME280;3132;42.622;23.328;2023-05-10T07:18:33;93096.75;;;8.66;98.83
6198;BME280;3132;42.622;23.328;2023-05-10T07:20:58;93093.31;;;8.61;99.36
6198;BME280;3132;42.622;23.328;2023-05-10T07:23:24;93083.41;;;8.53;98.03
6198;BME280;3132;42.622;23.328;2023-05-10T07:25:50;93104.53;;;8.66;97.74
6198;BME280;3132;42.622;23.328;2023-05-10T07:28:19;93096.47;;;8.68;98.63
6198;BME280;3132;42.622;23.328;2023-05-10T07:30:45;93085.03;;;8.69;98.96
6198;BME280;3132;42.622;23.328;2023-05-10T07:33:12;93092.88;;;8.79;99.50
6198;BME280;3132;42.622;23.328;2023-05-10T07:35:38;93105.34;;;8.72;96.88
6198;BME280;3132;42.622;23.328;2023-05-10T07:38:03;93091.28;;;8.68;97.44
6198;BME280;3132;42.622;23.328;2023-05-10T07:40:29;93115.50;;;8.73;97.96
6198;BME280;3132;42.622;23.328;2023-05-10T07:42:54;93106.84;;;8.53;96.57
6198;BME280;3132;42.622;23.328;2023-05-10T07:45:20;93104.25;;;8.63;98.14
6198;BME280;3132;42.622;23.328;2023-05-10T07:47:46;93099.16;;;8.88;97.72
6198;BME280;3132;42.622;23.328;2023-05-10T07:50:11;93103.34;;;8.94;98.19
6198;BME280;3132;42.622;23.328;2023-05-10T07:52:36;93110.63;;;8.97;98.31
6198;BME280;3132;42.622;23.328;2023-05-10T07:55:02;93103.06;;;8.90;98.18
6198;BME280;3132;42.622;23.328;2023-05-10T07:57:27;93106.50;;;9.01;97.66
6198;BME280;3132;42.622;23.328;2023-05-10T07:59:53;93065.56;;;8.86;96.19
6198;BME280;3132;42.622;23.328;2023-05-10T08:02:18;93108.81;;;8.92;97.19
6198;BME280;3132;42.622;23.328;2023-05-10T08:04:43;93115.34;;;9.05;97.10
6198;BME280;3132;42.622;23.328;2023-05-10T08:07:09;93096.31;;;9.04;96.57
6198;BME280;3132;42.622;23.328;2023-05-10T08:09:35;93091.94;;;9.15;96.72
6198;BME280;3132;42.622;23.328;2023-05-10T08:12:01;93111.50;;;9.27;94.62
6198;BME280;3132;42.622;23.328;2023-05-10T08:14:29;93116.16;;;9.20;96.37
6198;BME280;3132;42.622;23.328;2023-05-10T08:16:54;93104.47;;;9.23;95.01
6198;BME280;3132;42.622;23.328;2023-05-10T08:19:20;93096.63;;;9.18;93.89
6198;BME280;3132;42.622;23.328;2023-05-10T08:21:46;93101.06;;;9.17;95.05
6198;BME280;3132;42.622;23.328;2023-05-10T08:24:12;93114.38;;;9.36;94.03
6198;BME280;3132;42.622;23.328;2023-05-10T08:26:37;93112.53;;;9.21;94.05
6198;BME280;3132;42.622;23.328;2023-05-10T08:29:03;93107.34;;;9.31;94.77
6198;BME280;3132;42.622;23.328;2023-05-10T08:31:28;93123.25;;;9.50;94.65
6198;BME280;3132;42.622;23.328;2023-05-10T08:33:54;93122.47;;;9.54;94.35
6198;BME280;3132;42.622;23.328;2023-05-10T08:36:19;93128.97;;;9.42;94.99
6198;BME280;3132;42.622;23.328;2023-05-10T08:38:50;93125.84;;;9.30;93.83
6198;BME280;3132;42.622;23.328;2023-05-10T08:41:16;93105.75;;;9.20;93.66
6198;BME280;3132;42.622;23.328;2023-05-10T08:43:43;93117.75;;;9.31;94.48
6198;BME280;3132;42.622;23.328;2023-05-10T08:46:15;93129.22;;;9.35;93.48
6198;BME280;3132;42.622;23.328;2023-05-10T08:48:43;93129.53;;;9.54;93.57
6198;BME280;3132;42.622;23.328;2023-05-10T08:51:11;93120.63;;;9.30;96.26
6198;BME280;3132;42.622;23.328;2023-05-10T08:53:38;93082.84;;;9.22;95.67
6198;BME280;3132;42.622;23.328;2023-05-10T08:56:04;93119.59;;;9.36;96.69
6198;BME280;3132;42.622;23.328;2023-05-10T08:58:30;93127.69;;;9.39;97.11
6198;BME280;3132;42.622;23.328;2023-05-10T09:00:56;93123.22;;;9.25;98.98
6198;BME280;3132;42.622;23.328;2023-05-10T09:03:22;93132.91;;;9.44;97.00
6198;BME280;3132;42.622;23.328;2023-05-10T09:05:50;93128.50;;;9.55;96.90
6198;BME280;3132;42.622;23.328;2023-05-10T09:08:17;93126.66;;;9.60;97.11
6198;BME280;3132;42.622;23.328;2023-05-10T09:10:43;93120.16;;;9.63;96.56
6198;BME280;3132;42.622;23.328;2023-05-10T09:13:10;93120.16;;;9.63;96.95
6198;BME280;3132;42.622;23.328;2023-05-10T09:15:37;93121.72;;;9.49;96.73
6198;BME280;3132;42.622;23.328;2023-05-10T09:18:02;93122.47;;;9.44;95.12
6198;BME280;3132;42.622;23.328;2023-05-10T09:20:28;93109.16;;;9.36;96.80
6198;BME280;3132;42.622;23.328;2023-05-10T09:22:53;93115.72;;;9.58;97.02
6198;BME280;3132;42.622;23.328;2023-05-10T09:25:19;93115.97;;;9.67;95.67
6198;BME280;3132;42.622;23.328;2023-05-10T09:27:46;93118.88;;;9.75;96.20
6198;BME280;3132;42.622;23.328;2023-05-10T09:30:28;93128.78;;;10.09;93.89
6198;BME280;3132;42.622;23.328;2023-05-10T09:32:54;93115.19;;;10.17;94.04
6198;BME280;3132;42.622;23.328;2023-05-10T09:35:22;93113.66;;;10.21;93.85
6198;BME280;3132;42.622;23.328;2023-05-10T09:37:52;93099.81;;;9.95;92.99
6198;BME280;3132;42.622;23.328;2023-05-10T09:40:23;93114.38;;;10.41;93.30
6198;BME280;3132;42.622;23.328;2023-05-10T09:45:26;93128.00;;;10.08;91.10
6198;BME280;3132;42.622;23.328;2023-05-10T09:47:52;93119.09;;;10.04;93.47
6198;BME280;3132;42.622;23.328;2023-05-10T09:50:19;93124.31;;;10.04;93.40
6198;BME280;3132;42.622;23.328;2023-05-10T09:52:58;93117.56;;;10.08;93.47
6198;BME280;3132;42.622;23.328;2023-05-10T09:55:26;93117.31;;;10.15;92.06
6198;BME280;3132;42.622;23.328;2023-05-10T09:58:02;93092.50;;;10.02;92.11
6198;BME280;3132;42.622;23.328;2023-05-10T10:00:35;93102.41;;;10.00;93.00
6198;BME280;3132;42.622;23.328;2023-05-10T10:03:01;93113.63;;;9.91;94.07
6198;BME280;3132;42.622;23.328;2023-05-10T10:05:34;93110.50;;;10.24;92.09
6198;BME280;3132;42.622;23.328;2023-05-10T10:08:02;93100.06;;;10.14;91.70
6198;BME280;3132;42.622;23.328;2023-05-10T10:10:28;93096.19;;;10.16;93.31
6198;BME280;3132;42.622;23.328;2023-05-10T10:12:55;93090.69;;;9.88;93.23
6198;BME280;3132;42.622;23.328;2023-05-10T10:15:21;93089.38;;;10.00;90.36
6198;BME280;3132;42.622;23.328;2023-05-10T10:17:48;93087.03;;;10.19;90.22
6198;BME280;3132;42.622;23.328;2023-05-10T10:20:14;93090.91;;;10.31;90.43
6198;BME280;3132;42.622;23.328;2023-05-10T10:22:40;93082.09;;;10.02;90.26
6198;BME280;3132;42.622;23.328;2023-05-10T10:25:06;93086.25;;;10.03;90.93
6198;BME280;3132;42.622;23.328;2023-05-10T10:35:34;93084.69;;;9.97;89.76
6198;BME280;3132;42.622;23.328;2023-05-10T10:38:00;93099.25;;;10.38;90.47
6198;BME280;3132;42.622;23.328;2023-05-10T10:40:34;93096.88;;;10.47;88.41
6198;BME280;3132;42.622;23.328;2023-05-10T10:43:29;93093.38;;;10.76;91.01
6198;BME280;3132;42.622;23.328;2023-05-10T10:46:24;93101.97;;;10.87;88.92
6198;BME280;3132;42.622;23.328;2023-05-10T10:49:08;93098.81;;;10.90;88.09
6198;BME280;3132;42.622;23.328;2023-05-10T10:51:38;93090.31;;;10.59;88.01
6198;BME280;3132;42.622;23.328;2023-05-10T10:54:10;93094.53;;;10.45;88.66
6198;BME280;3132;42.622;23.328;2023-05-10T10:56:35;93093.47;;;10.56;88.55
6198;BME280;3132;42.622;23.328;2023-05-10T10:59:01;93089.25;;;10.70;89.09
6198;BME280;3132;42.622;23.328;2023-05-10T11:01:32;93099.22;;;10.53;89.41
6198;BME280;3132;42.622;23.328;2023-05-10T11:06:33;93109.41;;;10.45;89.72
6198;BME280;3132;42.622;23.328;2023-05-10T11:09:10;93101.31;;;10.41;88.84
6198;BME280;3132;42.622;23.328;2023-05-10T11:11:48;93096.59;;;10.53;88.59
6198;BME280;3132;42.622;23.328;2023-05-10T11:14:14;93089.03;;;10.52;87.92
6198;BME280;3132;42.622;23.328;2023-05-10T11:16:43;93102.84;;;10.62;88.03
6198;BME280;3132;42.622;23.328;2023-05-10T11:19:11;93099.16;;;10.68;87.55
6198;BME280;3132;42.622;23.328;2023-05-10T11:21:51;93098.59;;;10.81;87.22
6198;BME280;3132;42.622;23.328;2023-05-10T11:24:36;93097.53;;;10.87;86.83
6198;BME280;3132;42.622;23.328;2023-05-10T11:27:01;93108.50;;;10.89;87.31
6198;BME280;3132;42.622;23.328;2023-05-10T11:29:27;93097.09;;;10.65;86.36
6198;BME280;3132;42.622;23.328;2023-05-10T11:31:52;93099.50;;;10.47;89.25
6198;BME280;3132;42.622;23.328;2023-05-10T11:34:29;93106.50;;;10.61;88.44
6198;BME280;3132;42.622;23.328;2023-05-10T11:36:56;93112.25;;;10.58;89.22
6198;BME280;3132;42.622;23.328;2023-05-10T11:39:30;93102.38;;;10.35;90.42
6198;BME280;3132;42.622;23.328;2023-05-10T11:41:56;93100.59;;;10.21;91.06
6198;BME280;3132;42.622;23.328;2023-05-10T11:44:22;93106.31;;;10.38;91.01
6198;BME280;3132;42.622;23.328;2023-05-10T11:46:48;93096.13;;;10.36;89.82
6198;BME280;3132;42.622;23.328;2023-05-10T11:49:14;93105.75;;;10.51;89.80
6198;BME280;3132;42.622;23.328;2023-05-10T11:51:40;93098.69;;;10.61;89.58
6198;BME280;3132;42.622;23.328;2023-05-10T11:54:08;93109.66;;;10.53;89.38
6198;BME280;3132;42.622;23.328;2023-05-10T11:56:34;93102.09;;;10.52;89.70
6198;BME280;3132;42.622;23.328;2023-05-10T11:59:00;93090.38;;;10.34;89.07
6198;BME280;3132;42.622;23.328;2023-05-10T12:01:28;93098.69;;;10.51;89.81
6198;BME280;3132;42.622;23.328;2023-05-10T12:03:55;93103.16;;;10.36;90.68
6198;BME280;3132;42.622;23.328;2023-05-10T12:06:27;93104.19;;;10.50;91.27
6198;BME280;3132;42.622;23.328;2023-05-10T12:08:52;93094.47;;;10.70;89.24
6198;BME280;3132;42.622;23.328;2023-05-10T12:11:19;93091.34;;;10.63;89.92
6198;BME280;3132;42.622;23.328;2023-05-10T12:13:46;93086.44;;;10.52;90.08
6198;BME280;3132;42.622;23.328;2023-05-10T12:16:25;93098.16;;;10.59;89.98
6198;BME280;3132;42.622;23.328;2023-05-10T12:18:56;93091.13;;;10.50;89.16
6198;BME280;3132;42.622;23.328;2023-05-10T12:21:22;93090.28;;;10.69;89.22
6198;BME280;3132;42.622;23.328;2023-05-10T12:23:53;93080.88;;;10.68;89.24
6198;BME280;3132;42.622;23.328;2023-05-10T12:26:22;93084.28;;;10.74;90.63
6198;BME280;3132;42.622;23.328;2023-05-10T12:28:48;93081.13;;;10.72;89.76
6198;BME280;3132;42.622;23.328;2023-05-10T12:31:13;93084.22;;;10.84;88.93
6198;BME280;3132;42.622;23.328;2023-05-10T12:33:41;93081.66;;;10.74;89.41
6198;BME280;3132;42.622;23.328;2023-05-10T12:36:11;93074.09;;;10.67;89.88
6198;BME280;3132;42.622;23.328;2023-05-10T12:38:39;93084.75;;;10.81;88.93
6198;BME280;3132;42.622;23.328;2023-05-10T12:41:12;93072.84;;;10.60;89.36
6198;BME280;3132;42.622;23.328;2023-05-10T12:43:38;93075.13;;;10.71;89.28
6198;BME280;3132;42.622;23.328;2023-05-10T12:46:08;93070.72;;;10.67;89.53
6198;BME280;3132;42.622;23.328;2023-05-10T12:48:35;93067.91;;;10.53;89.94
6198;BME280;3132;42.622;23.328;2023-05-10T12:51:01;93063.94;;;10.61;89.32
6198;BME280;3132;42.622;23.328;2023-05-10T12:53:27;93068.88;;;10.67;89.38
6198;BME280;3132;42.622;23.328;2023-05-10T12:55:52;93064.22;;;10.49;90.59
6198;BME280;3132;42.622;23.328;2023-05-10T12:58:19;93061.34;;;10.56;89.62
6198;BME280;3132;42.622;23.328;2023-05-10T13:00:45;93059.81;;;10.40;89.80
6198;BME280;3132;42.622;23.328;2023-05-10T13:03:10;93045.75;;;10.36;89.80
6198;BME280;3132;42.622;23.328;2023-05-10T13:05:36;93057.97;;;10.50;90.44
6198;BME280;3132;42.622;23.328;2023-05-10T13:08:01;93053.78;;;10.54;89.30
6198;BME280;3132;42.622;23.328;2023-05-10T13:10:29;93047.56;;;10.45;90.54
6198;BME280;3132;42.622;23.328;2023-05-10T13:12:55;93033.97;;;10.43;89.64
6198;BME280;3132;42.622;23.328;2023-05-10T13:15:21;93057.66;;;10.67;90.63
6198;BME280;3132;42.622;23.328;2023-05-10T13:17:46;93059.44;;;10.76;88.46
6198;BME280;3132;42.622;23.328;2023-05-10T13:20:11;93040.94;;;10.68;87.53
6198;BME280;3132;42.622;23.328;2023-05-10T13:22:37;93056.03;;;10.76;88.24
6198;BME280;3132;42.622;23.328;2023-05-10T13:25:02;93050.56;;;10.72;87.17
6198;BME280;3132;42.622;23.328;2023-05-10T13:27:28;93033.69;;;10.50;89.67
6198;BME280;3132;42.622;23.328;2023-05-10T13:29:53;93036.56;;;10.58;89.64
6198;BME280;3132;42.622;23.328;2023-05-10T13:32:20;93041.94;;;10.77;89.42
6198;BME280;3132;42.622;23.328;2023-05-10T13:34:45;93050.25;;;10.89;89.12
6198;BME280;3132;42.622;23.328;2023-05-10T13:37:11;93036.94;;;10.85;88.56
6198;BME280;3132;42.622;23.328;2023-05-10T13:39:36;93016.69;;;10.57;87.60
6198;BME280;3132;42.622;23.328;2023-05-10T13:42:03;93034.50;;;10.99;87.28